createdAt,value
2024-01-26T00:02:47.333Z,-18.97
2024-01-26T00:05:51.013Z,-19.06
2024-01-26T00:08:55.083Z,-18.99
2024-01-26T00:11:59.627Z,-18.92
2024-01-26T00:15:03.533Z,-18.93
2024-01-26T00:18:07.738Z,-18.91
2024-01-26T00:21:12.030Z,-18.85
2024-01-26T00:24:16.252Z,-18.95
2024-01-26T00:27:19.719Z,-19.03
2024-01-26T00:30:24.595Z,-19.08
2024-01-26T00:33:28.447Z,-19.15
2024-01-26T00:36:32.235Z,-19.20
2024-01-26T00:39:36.126Z,-19.24
2024-01-26T00:42:39.587Z,-19.20
2024-01-26T00:45:43.156Z,-19.24
2024-01-26T00:48:46.931Z,-19.21
2024-01-26T00:51:50.661Z,-19.17
2024-01-26T00:54:54.355Z,-19.22
2024-01-26T00:57:59.002Z,-19.15
2024-01-26T01:01:03.929Z,-19.14
2024-01-26T01:04:07.638Z,-19.13
2024-01-26T01:07:11.107Z,-19.04
2024-01-26T01:10:16.092Z,-18.93
2024-01-26T01:13:19.816Z,-18.81
2024-01-26T01:16:24.560Z,-18.73
2024-01-26T01:19:28.139Z,-18.72
2024-01-26T01:22:31.851Z,-18.65
2024-01-26T01:25:35.380Z,-18.56
2024-01-26T01:28:39.081Z,-18.50
2024-01-26T01:31:42.659Z,-18.47
2024-01-26T01:34:46.220Z,-18.53
2024-01-26T01:37:49.957Z,-18.64
2024-01-26T01:40:53.973Z,-18.65
2024-01-26T01:43:58.749Z,-18.58
2024-01-26T01:47:02.449Z,-18.51
2024-01-26T01:50:07.406Z,-18.47
2024-01-26T01:53:11.622Z,-18.40
2024-01-26T01:56:17.049Z,-18.29
2024-01-26T01:59:20.750Z,-18.18
2024-01-26T02:02:26.215Z,-18.10
2024-01-26T02:05:29.811Z,-18.06
2024-01-26T02:08:33.555Z,-18.03
2024-01-26T02:11:37.328Z,-17.97
2024-01-26T02:14:41.059Z,-17.85
2024-01-26T02:17:44.848Z,-17.71
2024-01-26T02:20:55.162Z,-17.59
2024-01-26T02:23:59.679Z,-17.52
2024-01-26T02:27:03.927Z,-17.49
2024-01-26T02:30:08.673Z,-17.37
2024-01-26T02:33:12.607Z,-17.22
2024-01-26T02:36:16.399Z,-17.04
2024-01-26T02:39:20.948Z,-16.91
2024-01-26T02:42:24.722Z,-16.77
2024-01-26T02:45:28.656Z,-16.61
2024-01-26T02:48:32.250Z,-16.45
2024-01-26T02:51:36.503Z,-16.26
2024-01-26T02:54:40.809Z,-16.13
2024-01-26T02:57:44.520Z,-15.97
2024-01-26T03:00:48.451Z,-15.82
2024-01-26T03:03:52.528Z,-15.74
2024-01-26T03:06:58.410Z,-15.76
2024-01-26T03:10:02.653Z,-15.64
2024-01-26T03:13:06.267Z,-15.76
2024-01-26T03:16:10.619Z,-15.86
2024-01-26T03:19:14.819Z,-15.83
2024-01-26T03:22:18.601Z,-15.83
2024-01-26T03:25:22.414Z,-15.83
2024-01-26T03:28:25.899Z,-15.73
2024-01-26T03:31:30.529Z,-15.81
2024-01-26T03:34:34.942Z,-15.84
2024-01-26T03:37:40.938Z,-15.77
2024-01-26T03:40:44.660Z,-15.74
2024-01-26T03:43:48.338Z,-15.64
2024-01-26T03:46:52.753Z,-15.62
2024-01-26T03:49:56.339Z,-15.70
2024-01-26T03:52:59.991Z,-15.62
2024-01-26T03:56:04.583Z,-15.53
2024-01-26T03:59:08.529Z,-15.41
2024-01-26T04:02:12.161Z,-15.35
2024-01-26T04:05:15.554Z,-15.32
2024-01-26T04:08:20.204Z,-15.24
2024-01-26T04:11:24.105Z,-15.15
2024-01-26T04:14:27.872Z,-15.04
2024-01-26T04:17:31.543Z,-14.94
2024-01-26T04:20:35.192Z,-14.75
2024-01-26T04:23:39.039Z,-14.71
2024-01-26T04:26:42.731Z,-14.69
2024-01-26T04:29:46.501Z,-14.65
2024-01-26T04:32:50.464Z,-14.49
2024-01-26T04:35:54.363Z,-14.41
2024-01-26T04:39:00.603Z,-14.45
2024-01-26T04:42:04.562Z,-14.45
2024-01-26T04:45:08.736Z,-14.33
2024-01-26T04:48:12.525Z,-14.26
2024-01-26T04:51:16.054Z,-14.26
2024-01-26T04:54:19.944Z,-14.27
2024-01-26T04:57:24.106Z,-14.16
2024-01-26T05:00:27.559Z,-14.04
2024-01-26T05:03:32.453Z,-14.03
2024-01-26T05:06:36.377Z,-14.02
2024-01-26T05:09:40.389Z,-13.98
2024-01-26T05:12:43.840Z,-13.91
2024-01-26T05:15:47.543Z,-13.88
2024-01-26T05:18:51.609Z,-13.90
2024-01-26T05:21:55.171Z,-13.75
2024-01-26T05:24:58.816Z,-13.64
2024-01-26T05:28:02.507Z,-13.50
2024-01-26T05:31:06.314Z,-13.35
2024-01-26T05:34:10.770Z,-13.23
2024-01-26T05:37:14.343Z,-13.15
2024-01-26T05:40:17.969Z,-12.98
2024-01-26T05:43:21.646Z,-12.83
2024-01-26T05:46:25.234Z,-12.66
2024-01-26T05:49:29.277Z,-12.51
2024-01-26T05:52:32.980Z,-12.42
2024-01-26T05:55:36.643Z,-12.31
2024-01-26T05:58:40.937Z,-12.16
2024-01-26T06:01:44.349Z,-12.00
2024-01-26T06:04:47.940Z,-11.92
2024-01-26T06:07:51.888Z,-11.80
2024-01-26T06:10:57.941Z,-11.72
2024-01-26T06:14:01.649Z,-11.63
2024-01-26T06:17:05.374Z,-11.54
2024-01-26T06:20:09.950Z,-11.39
2024-01-26T06:23:13.831Z,-11.35
2024-01-26T06:26:17.469Z,-11.27
2024-01-26T06:29:21.106Z,-11.18
2024-01-26T06:32:25.589Z,-11.06
2024-01-26T06:35:29.271Z,-11.00
2024-01-26T06:38:32.887Z,-10.92
2024-01-26T06:41:38.178Z,-10.83
2024-01-26T06:44:42.423Z,-10.80
2024-01-26T06:47:46.241Z,-10.75
2024-01-26T06:50:49.915Z,-10.72
2024-01-26T06:53:54.219Z,-10.67
2024-01-26T06:56:59.080Z,-10.63
2024-01-26T07:00:05.139Z,-10.66
2024-01-26T07:03:09.250Z,-10.60
2024-01-26T07:06:12.954Z,-10.61
2024-01-26T07:09:17.209Z,-10.50
2024-01-26T07:12:21.244Z,-10.51
2024-01-26T07:15:25.152Z,-10.55
2024-01-26T07:18:29.242Z,-10.49
2024-01-26T07:21:33.576Z,-10.42
2024-01-26T07:24:37.936Z,-10.32
2024-01-26T07:27:41.834Z,-10.29
2024-01-26T07:30:45.888Z,-10.24
2024-01-26T07:33:49.806Z,-10.20
2024-01-26T07:36:54.017Z,-10.16
2024-01-26T07:39:57.662Z,-10.06
2024-01-26T07:43:01.391Z,-9.98
2024-01-26T07:46:05.562Z,-9.97
2024-01-26T07:49:09.793Z,-9.95
2024-01-26T07:52:13.548Z,-9.86
2024-01-26T07:55:17.202Z,-9.84
2024-01-26T07:58:21.254Z,-9.93
2024-01-26T08:01:25.497Z,-10.00
2024-01-26T08:04:29.345Z,-10.04
2024-01-26T08:07:33.923Z,-10.02
2024-01-26T08:10:37.917Z,-9.97
2024-01-26T08:13:41.998Z,-9.94
2024-01-26T08:16:45.789Z,-10.00
2024-01-26T08:19:50.696Z,-10.09
2024-01-26T08:22:54.504Z,-10.10
2024-01-26T08:25:58.304Z,-10.16
2024-01-26T08:29:03.030Z,-10.33
2024-01-26T08:32:06.788Z,-10.25
2024-01-26T08:35:12.187Z,-10.30
2024-01-26T08:38:16.018Z,-10.44
2024-01-26T08:41:19.700Z,-10.60
2024-01-26T08:44:23.399Z,-10.70
2024-01-26T08:47:27.269Z,-10.74
2024-01-26T08:50:31.109Z,-10.81
2024-01-26T08:53:34.606Z,-10.89
2024-01-26T08:56:44.314Z,-10.95
2024-01-26T08:59:48.334Z,-11.05
2024-01-26T09:02:52.149Z,-11.10
2024-01-26T09:05:55.782Z,-11.19
2024-01-26T09:08:59.798Z,-11.26
2024-01-26T09:12:03.532Z,-11.34
2024-01-26T09:15:07.472Z,-11.40
2024-01-26T09:18:11.637Z,-11.42
2024-01-26T09:21:15.559Z,-11.45
2024-01-26T09:24:19.256Z,-11.55
2024-01-26T09:27:23.893Z,-11.65
2024-01-26T09:30:27.695Z,-11.68
2024-01-26T09:33:31.680Z,-11.67
2024-01-26T09:36:35.804Z,-11.76
2024-01-26T09:39:39.596Z,-11.76
2024-01-26T09:42:43.469Z,-11.81
2024-01-26T09:45:49.340Z,-11.88
2024-01-26T09:48:58.192Z,-11.94
2024-01-26T09:52:02.126Z,-11.99
2024-01-26T09:55:07.437Z,-12.04
2024-01-26T09:58:11.196Z,-12.09
2024-01-26T10:01:20.664Z,-12.16
2024-01-26T10:04:24.768Z,-12.23
2024-01-26T10:07:28.356Z,-12.28
2024-01-26T10:10:32.614Z,-12.36
2024-01-26T10:13:37.111Z,-12.37
2024-01-26T10:16:40.864Z,-12.44
2024-01-26T10:19:45.020Z,-12.46
2024-01-26T10:22:49.283Z,-12.51
2024-01-26T10:25:53.216Z,-12.57
2024-01-26T10:28:58.705Z,-12.63
2024-01-26T10:32:02.911Z,-12.66
2024-01-26T10:35:09.375Z,-12.62
2024-01-26T10:38:15.808Z,-12.67
2024-01-26T10:41:23.256Z,-12.66
2024-01-26T10:44:27.128Z,-12.67
2024-01-26T10:47:31.669Z,-12.65
2024-01-26T10:50:37.272Z,-12.71
2024-01-26T10:53:44.641Z,-12.73
2024-01-26T10:56:48.347Z,-12.75
2024-01-26T10:59:52.130Z,-12.79
2024-01-26T11:02:56.743Z,-12.83
2024-01-26T11:06:01.297Z,-12.85
2024-01-26T11:09:10.189Z,-12.91
2024-01-26T11:12:21.294Z,-12.95
2024-01-26T11:15:28.079Z,-12.96
2024-01-26T11:18:37.886Z,-13.03
2024-01-26T11:21:46.515Z,-13.14
2024-01-26T11:24:50.180Z,-13.15
2024-01-26T11:28:01.132Z,-13.18
2024-01-26T11:31:06.206Z,-13.26
2024-01-26T11:34:30.421Z,-13.32
2024-01-26T11:37:34.457Z,-13.40
2024-01-26T11:40:38.540Z,-13.39
2024-01-26T11:43:48.790Z,-13.46
2024-01-26T11:46:52.936Z,-13.47
2024-01-26T11:49:57.959Z,-13.52
2024-01-26T11:53:01.929Z,-13.64
2024-01-26T11:56:06.479Z,-13.58
2024-01-26T11:59:10.825Z,-13.65
2024-01-26T12:02:14.823Z,-13.64
2024-01-26T12:05:19.003Z,-13.66
2024-01-26T12:08:26.681Z,-13.67
2024-01-26T12:11:31.918Z,-13.69
2024-01-26T12:14:36.138Z,-13.74
2024-01-26T12:17:39.834Z,-13.81
2024-01-26T12:20:44.101Z,-13.87
2024-01-26T12:23:52.071Z,-13.94
2024-01-26T12:26:57.250Z,-14.04
2024-01-26T12:30:01.076Z,-14.08
2024-01-26T12:33:09.836Z,-14.09
2024-01-26T12:36:17.003Z,-14.17
2024-01-26T12:39:20.761Z,-14.27
2024-01-26T12:42:24.516Z,-14.38
2024-01-26T12:45:28.262Z,-14.43
2024-01-26T12:48:32.834Z,-14.45
2024-01-26T12:51:36.395Z,-14.42
2024-01-26T12:54:40.002Z,-14.46
2024-01-26T12:57:43.895Z,-14.42
2024-01-26T13:00:47.751Z,-14.41
2024-01-26T13:03:51.596Z,-14.41
2024-01-26T13:06:55.214Z,-14.43
2024-01-26T13:09:59.304Z,-14.50
2024-01-26T13:13:03.951Z,-14.65
2024-01-26T13:16:07.959Z,-14.69
2024-01-26T13:19:11.610Z,-14.71
2024-01-26T13:22:15.885Z,-14.82
2024-01-26T13:25:20.053Z,-14.77
2024-01-26T13:28:25.492Z,-14.73
2024-01-26T13:31:30.484Z,-14.80
2024-01-26T13:34:34.392Z,-14.86
2024-01-26T13:37:39.245Z,-14.93
2024-01-26T13:40:42.858Z,-14.89
2024-01-26T13:43:47.324Z,-14.96
2024-01-26T13:46:51.074Z,-14.97
2024-01-26T13:49:57.403Z,-15.04
2024-01-26T13:53:01.080Z,-15.10
2024-01-26T13:56:04.957Z,-15.05
2024-01-26T13:59:08.809Z,-14.99
2024-01-26T14:02:12.749Z,-14.94
2024-01-26T14:05:16.684Z,-14.95
2024-01-26T14:08:21.103Z,-15.02
2024-01-26T14:11:24.869Z,-15.07
2024-01-26T14:14:28.560Z,-15.11
2024-01-26T14:17:32.368Z,-15.05
2024-01-26T14:20:37.635Z,-15.07
2024-01-26T14:23:41.560Z,-15.13
2024-01-26T14:26:47.148Z,-15.18
2024-01-26T14:29:50.977Z,-15.17
2024-01-26T14:32:54.852Z,-15.16
2024-01-26T14:35:58.599Z,-15.22
2024-01-26T14:39:05.153Z,-15.27
2024-01-26T14:42:08.724Z,-15.29
2024-01-26T14:45:13.534Z,-15.36
2024-01-26T14:48:17.256Z,-15.46
2024-01-26T14:51:21.003Z,-15.46
2024-01-26T14:54:24.593Z,-15.46
2024-01-26T14:57:29.424Z,-15.49
2024-01-26T15:00:33.433Z,-15.46
2024-01-26T15:03:38.107Z,-15.53
2024-01-26T15:06:41.874Z,-15.53
2024-01-26T15:09:46.524Z,-15.49
2024-01-26T15:12:51.610Z,-15.58
2024-01-26T15:15:55.795Z,-15.70
2024-01-26T15:18:59.377Z,-15.70
2024-01-26T15:22:03.851Z,-15.68
2024-01-26T15:25:07.856Z,-15.68
2024-01-26T15:28:11.654Z,-15.72
2024-01-26T15:31:24.444Z,-15.70
2024-01-26T15:34:28.292Z,-15.74
2024-01-26T15:37:32.065Z,-15.78
2024-01-26T15:40:36.745Z,-15.81
2024-01-26T15:43:40.282Z,-15.78
2024-01-26T15:46:44.178Z,-15.88
2024-01-26T15:49:49.160Z,-15.89
2024-01-26T15:52:52.999Z,-15.91
2024-01-26T15:55:56.577Z,-15.93
2024-01-26T15:59:00.299Z,-15.96
2024-01-26T16:02:03.953Z,-15.99
2024-01-26T16:05:09.837Z,-16.02
2024-01-26T16:08:15.277Z,-15.92
2024-01-26T16:11:21.724Z,-15.94
2024-01-26T16:14:25.440Z,-15.92
2024-01-26T16:17:29.169Z,-15.95
2024-01-26T16:20:35.189Z,-16.01
2024-01-26T16:23:39.681Z,-16.08
2024-01-26T16:26:43.639Z,-16.07
2024-01-26T16:29:47.308Z,-16.14
2024-01-26T16:32:51.121Z,-16.21
2024-01-26T16:35:54.901Z,-16.20
2024-01-26T16:38:58.797Z,-16.23
2024-01-26T16:42:04.811Z,-16.27
2024-01-26T16:45:08.940Z,-16.34
2024-01-26T16:48:13.262Z,-16.32
2024-01-26T16:51:17.066Z,-16.30
2024-01-26T16:54:20.780Z,-16.33
2024-01-26T16:57:24.875Z,-16.33
2024-01-26T17:00:28.468Z,-16.39
2024-01-26T17:03:32.237Z,-16.44
2024-01-26T17:06:36.108Z,-16.49
2024-01-26T17:09:39.790Z,-16.52
2024-01-26T17:12:44.355Z,-16.51
2024-01-26T17:15:48.049Z,-16.55
2024-01-26T17:18:52.044Z,-16.54
2024-01-26T17:21:56.032Z,-16.57
2024-01-26T17:25:00.050Z,-16.65
2024-01-26T17:28:03.791Z,-16.68
2024-01-26T17:31:09.022Z,-16.68
2024-01-26T17:34:12.833Z,-16.84
2024-01-26T17:37:16.384Z,-16.87
2024-01-26T17:40:20.090Z,-16.89
2024-01-26T17:43:23.979Z,-16.88
2024-01-26T17:46:27.399Z,-16.89
2024-01-26T17:49:31.124Z,-16.87
2024-01-26T17:52:36.099Z,-16.84
2024-01-26T17:55:42.199Z,-16.94
2024-01-26T17:58:47.504Z,-17.07
2024-01-26T18:01:51.332Z,-17.07
2024-01-26T18:04:55.081Z,-17.15
2024-01-26T18:07:59.907Z,-17.25
2024-01-26T18:11:05.558Z,-17.21
2024-01-26T18:14:09.595Z,-17.19
2024-01-26T18:17:13.328Z,-17.19
2024-01-26T18:20:18.066Z,-17.20
2024-01-26T18:23:21.991Z,-17.22
2024-01-26T18:26:25.540Z,-17.23
2024-01-26T18:29:29.251Z,-17.19
2024-01-26T18:32:33.014Z,-17.26
2024-01-26T18:35:36.817Z,-17.35
2024-01-26T18:38:41.410Z,-17.40
2024-01-26T18:41:44.978Z,-17.44
2024-01-26T18:44:49.172Z,-17.44
2024-01-26T18:47:52.919Z,-17.51
2024-01-26T18:50:58.105Z,-17.56
2024-01-26T18:54:02.648Z,-17.64
2024-01-26T18:57:07.576Z,-17.65
2024-01-26T19:00:12.528Z,-17.64
2024-01-26T19:03:18.000Z,-17.75
2024-01-26T19:06:22.113Z,-17.77
2024-01-26T19:09:27.130Z,-17.82
2024-01-26T19:12:30.950Z,-17.91
2024-01-26T19:15:35.019Z,-17.92
2024-01-26T19:18:40.087Z,-17.94
2024-01-26T19:21:45.433Z,-17.97
2024-01-26T19:24:49.031Z,-17.96
2024-01-26T19:27:52.761Z,-17.97
2024-01-26T19:30:57.365Z,-18.05
2024-01-26T19:34:01.498Z,-18.12
2024-01-26T19:37:06.813Z,-18.19
2024-01-26T19:40:10.867Z,-18.31
2024-01-26T19:43:14.341Z,-18.33
2024-01-26T19:46:18.078Z,-18.29
2024-01-26T19:49:21.921Z,-18.28
2024-01-26T19:52:25.606Z,-18.27
2024-01-26T19:55:29.906Z,-18.20
2024-01-26T19:58:34.789Z,-18.20
2024-01-26T20:01:38.441Z,-18.26
2024-01-26T20:04:41.959Z,-18.23
2024-01-26T20:07:48.957Z,-18.22
2024-01-26T20:10:53.763Z,-18.27
2024-01-26T20:13:57.382Z,-18.29
2024-01-26T20:17:01.021Z,-18.22
2024-01-26T20:20:05.878Z,-18.27
2024-01-26T20:23:11.805Z,-18.22
2024-01-26T20:26:15.366Z,-18.21
2024-01-26T20:29:19.129Z,-18.28
2024-01-26T20:32:23.780Z,-18.29
2024-01-26T20:35:28.049Z,-18.24
2024-01-26T20:38:32.766Z,-18.27
2024-01-26T20:41:37.214Z,-18.26
2024-01-26T20:44:41.172Z,-18.27
2024-01-26T20:51:35.878Z,-18.35
2024-01-26T20:54:39.757Z,-18.38
2024-01-26T20:57:44.117Z,-18.53
2024-01-26T21:00:48.938Z,-18.56
2024-01-26T21:03:52.513Z,-18.75
2024-01-26T21:06:56.621Z,-18.65
2024-01-26T21:10:00.201Z,-18.60
2024-01-26T21:13:03.906Z,-18.57
2024-01-26T21:16:08.053Z,-18.59
2024-01-26T21:19:12.013Z,-18.60
2024-01-26T21:22:15.869Z,-18.59
2024-01-26T21:25:22.044Z,-18.63
2024-01-26T21:28:26.172Z,-18.70
2024-01-26T21:31:33.453Z,-18.85
2024-01-26T21:34:37.651Z,-18.83
2024-01-26T21:37:43.268Z,-18.89
2024-01-26T21:40:46.951Z,-18.92
2024-01-26T21:43:52.570Z,-19.01
2024-01-26T21:46:56.143Z,-19.01
2024-01-26T21:50:00.106Z,-19.01
2024-01-26T21:53:04.255Z,-19.04
2024-01-26T21:56:09.839Z,-19.11
2024-01-26T21:59:17.151Z,-19.08
2024-01-26T22:02:23.652Z,-19.07
2024-01-26T22:05:27.473Z,-19.09
2024-01-26T22:08:31.045Z,-19.16
2024-01-26T22:11:35.368Z,-19.20
2024-01-26T22:14:38.987Z,-19.20
2024-01-26T22:17:42.467Z,-19.25
2024-01-26T22:20:47.301Z,-19.26
2024-01-26T22:23:54.214Z,-19.20
2024-01-26T22:26:57.788Z,-19.15
2024-01-26T22:30:01.404Z,-19.11
2024-01-26T22:33:05.521Z,-19.11
2024-01-26T22:36:09.716Z,-19.16
2024-01-26T22:39:13.331Z,-19.24
2024-01-26T22:42:17.091Z,-19.22
2024-01-26T22:45:23.872Z,-19.24
2024-01-26T22:48:28.797Z,-19.25
2024-01-26T22:51:32.538Z,-19.36
2024-01-26T22:54:36.220Z,-19.35
2024-01-26T22:57:39.688Z,-19.35
2024-01-26T23:00:43.792Z,-19.39
2024-01-26T23:03:48.327Z,-19.46
2024-01-26T23:06:53.441Z,-19.53
2024-01-26T23:09:58.222Z,-19.52
2024-01-26T23:13:02.627Z,-19.46
2024-01-26T23:16:06.458Z,-19.43
2024-01-26T23:19:10.759Z,-19.42
2024-01-26T23:22:14.809Z,-19.36
2024-01-26T23:25:18.872Z,-19.31
2024-01-26T23:28:25.188Z,-19.34
2024-01-26T23:31:29.852Z,-19.32
2024-01-26T23:34:33.672Z,-19.30
2024-01-26T23:37:37.368Z,-19.29
2024-01-26T23:40:40.919Z,-19.29
2024-01-26T23:43:44.751Z,-19.27
2024-01-26T23:46:48.423Z,-19.29
2024-01-26T23:49:52.315Z,-19.34
2024-01-26T23:52:56.144Z,-19.33
2024-01-26T23:56:00.803Z,-19.29
2024-01-26T23:59:04.970Z,-19.28
